sensor_id;sensor_type;location;lat;lon;timestamp;temperature;humidity
19385;DHT22;9828;54.122;17.974;2022-11-20T00:04:01;-1.00;1.00
19385;DHT22;9828;54.122;17.974;2022-11-20T00:09:22;-1.00;1.00
19385;DHT22;9828;54.122;17.974;2022-11-20T00:14:43;-1.00;1.00
19385;DHT22;9828;54.122;17.974;2022-11-20T00:20:05;-1.00;1.00
19385;DHT22;9828;54.122;17.974;2022-11-20T00:25:26;-1.00;1.00
19385;DHT22;9828;54.122;17.974;2022-11-20T00:30:48;-0.90;1.00
19385;DHT22;9828;54.122;17.974;2022-11-20T00:36:12;-0.90;1.00
19385;DHT22;9828;54.122;17.974;2022-11-20T00:41:34;-0.90;1.00
19385;DHT22;9828;54.122;17.974;2022-11-20T00:46:55;-0.90;1.00
19385;DHT22;9828;54.122;17.974;2022-11-20T00:52:16;-1.00;1.00
19385;DHT22;9828;54.122;17.974;2022-11-20T00:57:37;-1.00;1.00
19385;DHT22;9828;54.122;17.974;2022-11-20T01:02:58;-0.90;1.00
19385;DHT22;9828;54.122;17.974;2022-11-20T01:08:19;-1.00;1.00
19385;DHT22;9828;54.122;17.974;2022-11-20T01:13:41;-1.10;1.00
19385;DHT22;9828;54.122;17.974;2022-11-20T01:19:05;-1.10;1.00
19385;DHT22;9828;54.122;17.974;2022-11-20T01:24:27;-1.10;1.00
19385;DHT22;9828;54.122;17.974;2022-11-20T01:29:48;-1.20;1.00
19385;DHT22;9828;54.122;17.974;2022-11-20T01:35:09;-1.20;1.00
19385;DHT22;9828;54.122;17.974;2022-11-20T01:40:30;-1.20;1.00
19385;DHT22;9828;54.122;17.974;2022-11-20T01:46:18;-1.20;1.00
19385;DHT22;9828;54.122;17.974;2022-11-20T01:51:43;-1.30;1.00
19385;DHT22;9828;54.122;17.974;2022-11-20T01:57:08;-1.50;1.00
19385;DHT22;9828;54.122;17.974;2022-11-20T02:02:31;-1.60;1.00
19385;DHT22;9828;54.122;17.974;2022-11-20T02:07:52;-1.70;1.00
19385;DHT22;9828;54.122;17.974;2022-11-20T02:13:16;-1.70;1.00
19385;DHT22;9828;54.122;17.974;2022-11-20T02:18:58;-1.60;1.00
19385;DHT22;9828;54.122;17.974;2022-11-20T02:24:21;-1.70;1.00
19385;DHT22;9828;54.122;17.974;2022-11-20T02:30:12;-1.60;1.00
19385;DHT22;9828;54.122;17.974;2022-11-20T02:40:54;-1.60;1.00
19385;DHT22;9828;54.122;17.974;2022-11-20T02:46:15;-1.60;1.00
19385;DHT22;9828;54.122;17.974;2022-11-20T02:51:37;-1.60;1.00
19385;DHT22;9828;54.122;17.974;2022-11-20T02:56:58;-1.60;1.00
19385;DHT22;9828;54.122;17.974;2022-11-20T03:02:19;-1.60;1.00
19385;DHT22;9828;54.122;17.974;2022-11-20T03:07:42;-1.60;1.00
19385;DHT22;9828;54.122;17.974;2022-11-20T03:13:04;-1.60;1.00
19385;DHT22;9828;54.122;17.974;2022-11-20T03:18:28;-1.70;1.00
19385;DHT22;9828;54.122;17.974;2022-11-20T03:23:49;-1.70;1.00
19385;DHT22;9828;54.122;17.974;2022-11-20T03:29:10;-1.70;1.00
19385;DHT22;9828;54.122;17.974;2022-11-20T03:34:32;-1.70;1.00
19385;DHT22;9828;54.122;17.974;2022-11-20T03:39:53;-1.70;1.00
19385;DHT22;9828;54.122;17.974;2022-11-20T03:45:16;-1.60;1.00
19385;DHT22;9828;54.122;17.974;2022-11-20T03:50:37;-1.60;1.00
19385;DHT22;9828;54.122;17.974;2022-11-20T03:55:58;-1.50;1.00
19385;DHT22;9828;54.122;17.974;2022-11-20T04:01:26;-1.50;1.00
19385;DHT22;9828;54.122;17.974;2022-11-20T04:06:47;-1.50;1.00
19385;DHT22;9828;54.122;17.974;2022-11-20T04:12:08;-1.50;1.00
19385;DHT22;9828;54.122;17.974;2022-11-20T04:17:29;-1.40;1.00
19385;DHT22;9828;54.122;17.974;2022-11-20T04:22:53;-1.40;1.00
19385;DHT22;9828;54.122;17.974;2022-11-20T04:28:15;-1.40;1.00
19385;DHT22;9828;54.122;17.974;2022-11-20T04:33:37;-1.40;1.00
19385;DHT22;9828;54.122;17.974;2022-11-20T04:39:01;-1.40;1.00
19385;DHT22;9828;54.122;17.974;2022-11-20T04:44:22;-1.30;1.00
19385;DHT22;9828;54.122;17.974;2022-11-20T04:49:44;-1.30;1.00
19385;DHT22;9828;54.122;17.974;2022-11-20T04:55:05;-1.40;1.00
19385;DHT22;9828;54.122;17.974;2022-11-20T05:00:27;-1.50;1.00
19385;DHT22;9828;54.122;17.974;2022-11-20T05:05:48;-1.50;1.00
19385;DHT22;9828;54.122;17.974;2022-11-20T05:11:12;-1.50;1.00
19385;DHT22;9828;54.122;17.974;2022-11-20T05:16:34;-1.40;1.00
19385;DHT22;9828;54.122;17.974;2022-11-20T05:21:56;-1.50;1.00
19385;DHT22;9828;54.122;17.974;2022-11-20T05:27:18;-1.50;1.00
19385;DHT22;9828;54.122;17.974;2022-11-20T05:32:39;-1.50;1.00
19385;DHT22;9828;54.122;17.974;2022-11-20T05:38:00;-1.50;1.00
19385;DHT22;9828;54.122;17.974;2022-11-20T05:43:21;-1.50;1.00
19385;DHT22;9828;54.122;17.974;2022-11-20T05:48:44;-1.70;1.00
19385;DHT22;9828;54.122;17.974;2022-11-20T05:54:05;-1.80;1.00
19385;DHT22;9828;54.122;17.974;2022-11-20T05:59:26;-1.80;1.00
19385;DHT22;9828;54.122;17.974;2022-11-20T06:04:47;-1.80;1.00
19385;DHT22;9828;54.122;17.974;2022-11-20T06:10:09;-1.90;1.00
19385;DHT22;9828;54.122;17.974;2022-11-20T06:15:30;-1.90;1.00
19385;DHT22;9828;54.122;17.974;2022-11-20T06:20:59;-1.90;1.00
19385;DHT22;9828;54.122;17.974;2022-11-20T06:26:23;-1.90;1.00
19385;DHT22;9828;54.122;17.974;2022-11-20T06:31:44;-1.90;1.00
19385;DHT22;9828;54.122;17.974;2022-11-20T06:37:06;-1.90;1.00
19385;DHT22;9828;54.122;17.974;2022-11-20T06:42:27;-1.90;1.00
19385;DHT22;9828;54.122;17.974;2022-11-20T06:47:48;-1.80;1.00
19385;DHT22;9828;54.122;17.974;2022-11-20T06:53:09;-1.80;1.00
19385;DHT22;9828;54.122;17.974;2022-11-20T06:58:32;-1.80;1.00
19385;DHT22;9828;54.122;17.974;2022-11-20T07:03:54;-1.80;1.00
19385;DHT22;9828;54.122;17.974;2022-11-20T07:09:15;-1.70;1.00
19385;DHT22;9828;54.122;17.974;2022-11-20T07:14:37;-1.70;1.00
19385;DHT22;9828;54.122;17.974;2022-11-20T07:19:58;-1.70;1.00
19385;DHT22;9828;54.122;17.974;2022-11-20T07:25:19;-1.60;1.00
19385;DHT22;9828;54.122;17.974;2022-11-20T07:30:40;-1.60;1.00
19385;DHT22;9828;54.122;17.974;2022-11-20T07:36:02;-1.60;1.00
19385;DHT22;9828;54.122;17.974;2022-11-20T07:41:24;-1.60;1.00
19385;DHT22;9828;54.122;17.974;2022-11-20T07:46:46;-1.50;1.00
19385;DHT22;9828;54.122;17.974;2022-11-20T07:52:07;-1.30;1.00
19385;DHT22;9828;54.122;17.974;2022-11-20T07:57:28;-1.10;1.00
19385;DHT22;9828;54.122;17.974;2022-11-20T08:02:49;-1.00;1.00
19385;DHT22;9828;54.122;17.974;2022-11-20T08:08:11;-1.00;1.00
19385;DHT22;9828;54.122;17.974;2022-11-20T08:13:32;-1.00;1.00
19385;DHT22;9828;54.122;17.974;2022-11-20T08:19:16;-0.90;1.00
19385;DHT22;9828;54.122;17.974;2022-11-20T08:24:38;-0.70;1.00
19385;DHT22;9828;54.122;17.974;2022-11-20T08:29:59;-0.60;1.00
19385;DHT22;9828;54.122;17.974;2022-11-20T08:35:21;-0.50;1.00
19385;DHT22;9828;54.122;17.974;2022-11-20T08:40:42;-0.50;1.00
19385;DHT22;9828;54.122;17.974;2022-11-20T08:46:25;-0.50;1.00
19385;DHT22;9828;54.122;17.974;2022-11-20T08:51:47;-0.50;1.00
19385;DHT22;9828;54.122;17.974;2022-11-20T08:57:12;-0.50;1.00
19385;DHT22;9828;54.122;17.974;2022-11-20T09:02:33;-0.40;1.00
19385;DHT22;9828;54.122;17.974;2022-11-20T09:07:58;-0.20;1.00
19385;DHT22;9828;54.122;17.974;2022-11-20T09:13:21;-0.30;1.00
19385;DHT22;9828;54.122;17.974;2022-11-20T09:18:43;-0.20;1.00
19385;DHT22;9828;54.122;17.974;2022-11-20T09:24:05;-0.30;1.00
19385;DHT22;9828;54.122;17.974;2022-11-20T09:29:26;-0.20;1.00
19385;DHT22;9828;54.122;17.974;2022-11-20T09:34:47;-0.10;1.00
19385;DHT22;9828;54.122;17.974;2022-11-20T09:57:36;0.30;1.00
19385;DHT22;9828;54.122;17.974;2022-11-20T10:08:47;0.50;1.00
19385;DHT22;9828;54.122;17.974;2022-11-20T10:20:27;0.50;1.00
19385;DHT22;9828;54.122;17.974;2022-11-20T10:26:28;0.40;1.00
19385;DHT22;9828;54.122;17.974;2022-11-20T10:32:18;0.40;1.00
19385;DHT22;9828;54.122;17.974;2022-11-20T10:37:44;0.50;1.00
19385;DHT22;9828;54.122;17.974;2022-11-20T10:43:24;0.50;1.00
19385;DHT22;9828;54.122;17.974;2022-11-20T10:48:49;0.50;1.00
19385;DHT22;9828;54.122;17.974;2022-11-20T10:54:22;0.50;1.00
19385;DHT22;9828;54.122;17.974;2022-11-20T11:00:01;0.50;1.00
19385;DHT22;9828;54.122;17.974;2022-11-20T11:11:22;0.60;1.00
19385;DHT22;9828;54.122;17.974;2022-11-20T11:17:20;0.80;1.00
19385;DHT22;9828;54.122;17.974;2022-11-20T11:22:49;0.70;1.00
19385;DHT22;9828;54.122;17.974;2022-11-20T11:33:38;0.60;1.00
19385;DHT22;9828;54.122;17.974;2022-11-20T11:39:00;0.60;1.00
19385;DHT22;9828;54.122;17.974;2022-11-20T11:44:26;0.60;1.00
19385;DHT22;9828;54.122;17.974;2022-11-20T11:50:18;0.70;1.00
19385;DHT22;9828;54.122;17.974;2022-11-20T11:56:04;0.70;1.00
19385;DHT22;9828;54.122;17.974;2022-11-20T12:01:50;0.50;1.00
19385;DHT22;9828;54.122;17.974;2022-11-20T12:07:38;0.50;1.00
19385;DHT22;9828;54.122;17.974;2022-11-20T12:18:41;0.50;1.00
19385;DHT22;9828;54.122;17.974;2022-11-20T12:30:07;0.40;1.00
19385;DHT22;9828;54.122;17.974;2022-11-20T12:53:40;0.30;1.00
19385;DHT22;9828;54.122;17.974;2022-11-20T13:10:35;0.30;1.00
19385;DHT22;9828;54.122;17.974;2022-11-20T13:22:01;0.30;1.00
19385;DHT22;9828;54.122;17.974;2022-11-20T13:27:23;0.30;1.00
19385;DHT22;9828;54.122;17.974;2022-11-20T13:38:14;0.20;1.00
19385;DHT22;9828;54.122;17.974;2022-11-20T13:43:39;0.20;9.90
19385;DHT22;9828;54.122;17.974;2022-11-20T13:49:07;0.20;21.30
19385;DHT22;9828;54.122;17.974;2022-11-20T13:54:43;0.20;1.00
19385;DHT22;9828;54.122;17.974;2022-11-20T14:00:16;0.30;1.00
19385;DHT22;9828;54.122;17.974;2022-11-20T14:05:40;0.30;1.00
19385;DHT22;9828;54.122;17.974;2022-11-20T14:11:32;0.30;1.00
19385;DHT22;9828;54.122;17.974;2022-11-20T14:17:15;0.30;1.00
19385;DHT22;9828;54.122;17.974;2022-11-20T14:22:37;0.20;4.30
19385;DHT22;9828;54.122;17.974;2022-11-20T14:28:00;0.10;5.90
19385;DHT22;9828;54.122;17.974;2022-11-20T14:33:23;0.10;5.80
19385;DHT22;9828;54.122;17.974;2022-11-20T14:38:46;0.00;2.90
19385;DHT22;9828;54.122;17.974;2022-11-20T14:44:09;0.00;14.40
19385;DHT22;9828;54.122;17.974;2022-11-20T14:49:31;-0.10;8.50
19385;DHT22;9828;54.122;17.974;2022-11-20T14:54:55;-0.10;8.80
19385;DHT22;9828;54.122;17.974;2022-11-20T15:00:18;-0.20;29.80
19385;DHT22;9828;54.122;17.974;2022-11-20T15:05:48;-0.20;23.80
19385;DHT22;9828;54.122;17.974;2022-11-20T15:11:19;-0.20;28.40
19385;DHT22;9828;54.122;17.974;2022-11-20T15:16:41;-0.10;20.20
19385;DHT22;9828;54.122;17.974;2022-11-20T15:22:03;-0.20;48.70
19385;DHT22;9828;54.122;17.974;2022-11-20T15:27:25;-0.20;46.80
19385;DHT22;9828;54.122;17.974;2022-11-20T15:32:46;-0.20;77.80
19385;DHT22;9828;54.122;17.974;2022-11-20T15:38:08;-0.10;33.00
19385;DHT22;9828;54.122;17.974;2022-11-20T15:43:29;-0.20;37.50
19385;DHT22;9828;54.122;17.974;2022-11-20T15:48:56;-0.20;33.70
19385;DHT22;9828;54.122;17.974;2022-11-20T15:54:20;-0.20;24.20
19385;DHT22;9828;54.122;17.974;2022-11-20T15:59:41;-0.20;39.70
19385;DHT22;9828;54.122;17.974;2022-11-20T16:05:04;-0.20;24.60
19385;DHT22;9828;54.122;17.974;2022-11-20T16:10:25;-0.10;51.30
19385;DHT22;9828;54.122;17.974;2022-11-20T16:15:50;-0.10;65.20
19385;DHT22;9828;54.122;17.974;2022-11-20T16:21:13;-0.10;40.30
19385;DHT22;9828;54.122;17.974;2022-11-20T16:26:35;-0.10;43.90
19385;DHT22;9828;54.122;17.974;2022-11-20T16:31:56;0.00;17.30
19385;DHT22;9828;54.122;17.974;2022-11-20T16:37:18;0.10;13.80
19385;DHT22;9828;54.122;17.974;2022-11-20T16:42:39;0.10;4.40
19385;DHT22;9828;54.122;17.974;2022-11-20T16:48:00;0.10;10.80
19385;DHT22;9828;54.122;17.974;2022-11-20T16:53:21;0.20;5.20
19385;DHT22;9828;54.122;17.974;2022-11-20T16:58:47;0.10;2.90
19385;DHT22;9828;54.122;17.974;2022-11-20T17:04:09;0.20;1.00
19385;DHT22;9828;54.122;17.974;2022-11-20T17:09:30;0.20;1.00
19385;DHT22;9828;54.122;17.974;2022-11-20T17:14:52;0.20;1.00
19385;DHT22;9828;54.122;17.974;2022-11-20T17:20:13;0.20;1.00
19385;DHT22;9828;54.122;17.974;2022-11-20T17:25:34;0.30;1.00
19385;DHT22;9828;54.122;17.974;2022-11-20T17:31:04;0.30;1.00
19385;DHT22;9828;54.122;17.974;2022-11-20T17:36:26;0.20;1.00
19385;DHT22;9828;54.122;17.974;2022-11-20T17:41:47;0.30;1.00
19385;DHT22;9828;54.122;17.974;2022-11-20T17:47:28;0.30;1.00
19385;DHT22;9828;54.122;17.974;2022-11-20T17:52:49;0.20;1.00
19385;DHT22;9828;54.122;17.974;2022-11-20T17:58:10;0.20;1.00
19385;DHT22;9828;54.122;17.974;2022-11-20T18:03:32;0.20;1.00
19385;DHT22;9828;54.122;17.974;2022-11-20T18:09:00;0.20;1.00
19385;DHT22;9828;54.122;17.974;2022-11-20T18:14:22;0.20;1.00
19385;DHT22;9828;54.122;17.974;2022-11-20T18:19:48;0.10;1.00
19385;DHT22;9828;54.122;17.974;2022-11-20T18:25:26;0.10;1.00
19385;DHT22;9828;54.122;17.974;2022-11-20T18:30:47;0.10;1.00
19385;DHT22;9828;54.122;17.974;2022-11-20T18:36:10;0.20;1.00
19385;DHT22;9828;54.122;17.974;2022-11-20T18:41:31;0.20;1.00
19385;DHT22;9828;54.122;17.974;2022-11-20T18:47:22;0.20;3.50
19385;DHT22;9828;54.122;17.974;2022-11-20T18:52:44;0.30;1.00
19385;DHT22;9828;54.122;17.974;2022-11-20T18:58:06;0.30;1.00
19385;DHT22;9828;54.122;17.974;2022-11-20T19:03:27;0.20;1.00
19385;DHT22;9828;54.122;17.974;2022-11-20T19:08:49;0.30;1.00
19385;DHT22;9828;54.122;17.974;2022-11-20T19:14:10;0.20;1.00
19385;DHT22;9828;54.122;17.974;2022-11-20T19:19:33;0.20;1.00
19385;DHT22;9828;54.122;17.974;2022-11-20T19:24:54;0.20;1.00
19385;DHT22;9828;54.122;17.974;2022-11-20T19:30:15;0.20;1.00
19385;DHT22;9828;54.122;17.974;2022-11-20T19:35:37;0.10;1.00
19385;DHT22;9828;54.122;17.974;2022-11-20T19:40:58;0.20;2.20
19385;DHT22;9828;54.122;17.974;2022-11-20T19:46:20;0.30;1.00
19385;DHT22;9828;54.122;17.974;2022-11-20T19:51:46;0.20;1.00
19385;DHT22;9828;54.122;17.974;2022-11-20T19:57:08;0.20;1.00
19385;DHT22;9828;54.122;17.974;2022-11-20T20:02:29;0.20;1.00
19385;DHT22;9828;54.122;17.974;2022-11-20T20:07:50;0.20;1.00
19385;DHT22;9828;54.122;17.974;2022-11-20T20:13:12;0.20;1.00
19385;DHT22;9828;54.122;17.974;2022-11-20T20:18:33;0.10;1.00
19385;DHT22;9828;54.122;17.974;2022-11-20T20:23:54;0.10;1.00
19385;DHT22;9828;54.122;17.974;2022-11-20T20:29:16;0.10;1.00
19385;DHT22;9828;54.122;17.974;2022-11-20T20:34:40;0.10;1.00
19385;DHT22;9828;54.122;17.974;2022-11-20T20:40:01;0.10;1.00
19385;DHT22;9828;54.122;17.974;2022-11-20T20:45:22;0.20;1.00
19385;DHT22;9828;54.122;17.974;2022-11-20T20:50:55;0.10;1.00
19385;DHT22;9828;54.122;17.974;2022-11-20T20:56:17;0.10;1.00
19385;DHT22;9828;54.122;17.974;2022-11-20T21:01:37;0.10;1.00
19385;DHT22;9828;54.122;17.974;2022-11-20T21:06:58;0.10;1.00
19385;DHT22;9828;54.122;17.974;2022-11-20T21:12:20;0.10;1.00
19385;DHT22;9828;54.122;17.974;2022-11-20T21:17:41;0.00;1.00
19385;DHT22;9828;54.122;17.974;2022-11-20T21:23:08;0.10;18.00
19385;DHT22;9828;54.122;17.974;2022-11-20T21:28:34;0.10;1.00
19385;DHT22;9828;54.122;17.974;2022-11-20T21:33:55;0.10;1.00
19385;DHT22;9828;54.122;17.974;2022-11-20T21:39:17;0.10;12.10
19385;DHT22;9828;54.122;17.974;2022-11-20T21:44:41;0.00;11.90
19385;DHT22;9828;54.122;17.974;2022-11-20T21:50:02;0.00;10.50
19385;DHT22;9828;54.122;17.974;2022-11-20T21:55:24;0.10;13.70
19385;DHT22;9828;54.122;17.974;2022-11-20T22:00:45;0.20;13.00
19385;DHT22;9828;54.122;17.974;2022-11-20T22:06:07;0.20;1.30
19385;DHT22;9828;54.122;17.974;2022-11-20T22:11:29;0.20;1.00
19385;DHT22;9828;54.122;17.974;2022-11-20T22:16:51;0.10;1.00
19385;DHT22;9828;54.122;17.974;2022-11-20T22:22:13;0.20;1.00
19385;DHT22;9828;54.122;17.974;2022-11-20T22:27:34;0.20;1.00
19385;DHT22;9828;54.122;17.974;2022-11-20T22:32:55;0.10;1.00
19385;DHT22;9828;54.122;17.974;2022-11-20T22:38:17;0.10;1.00
19385;DHT22;9828;54.122;17.974;2022-11-20T22:43:39;0.20;3.10
19385;DHT22;9828;54.122;17.974;2022-11-20T22:49:03;0.20;1.00
19385;DHT22;9828;54.122;17.974;2022-11-20T22:54:24;0.20;1.00
19385;DHT22;9828;54.122;17.974;2022-11-20T22:59:46;0.10;1.00
19385;DHT22;9828;54.122;17.974;2022-11-20T23:05:12;0.10;2.20
19385;DHT22;9828;54.122;17.974;2022-11-20T23:10:33;0.20;1.00
19385;DHT22;9828;54.122;17.974;2022-11-20T23:15:59;0.10;1.00
19385;DHT22;9828;54.122;17.974;2022-11-20T23:21:20;0.20;9.90
19385;DHT22;9828;54.122;17.974;2022-11-20T23:26:41;0.20;16.90
19385;DHT22;9828;54.122;17.974;2022-11-20T23:32:04;0.10;7.90
19385;DHT22;9828;54.122;17.974;2022-11-20T23:37:25;0.20;1.70
19385;DHT22;9828;54.122;17.974;2022-11-20T23:42:48;0.30;7.20
19385;DHT22;9828;54.122;17.974;2022-11-20T23:48:30;0.20;16.60
19385;DHT22;9828;54.122;17.974;2022-11-20T23:53:51;0.20;16.50
19385;DHT22;9828;54.122;17.974;2022-11-20T23:59:13;0.20;25.80
